sensor_id;sensor_type;location;lat;lon;timestamp;P1;durP1;ratioP1;P2;durP2;ratioP2
60169;SDS011;46042;49.444;6.862;2023-04-25T00:00:52;5.97;;;4.20;;
60169;SDS011;46042;49.444;6.862;2023-04-25T00:03:19;6.63;;;3.95;;
60169;SDS011;46042;49.444;6.862;2023-04-25T00:05:47;6.75;;;4.18;;
60169;SDS011;46042;49.444;6.862;2023-04-25T00:08:15;6.15;;;4.03;;
60169;SDS011;46042;49.444;6.862;2023-04-25T00:10:43;6.50;;;3.70;;
60169;SDS011;46042;49.444;6.862;2023-04-25T00:13:10;6.35;;;4.10;;
60169;SDS011;46042;49.444;6.862;2023-04-25T00:15:37;7.72;;;4.47;;
60169;SDS011;46042;49.444;6.862;2023-04-25T00:18:08;6.68;;;3.80;;
60169;SDS011;46042;49.444;6.862;2023-04-25T00:20:35;7.35;;;4.13;;
60169;SDS011;46042;49.444;6.862;2023-04-25T00:23:02;5.93;;;4.28;;
60169;SDS011;46042;49.444;6.862;2023-04-25T00:25:28;7.05;;;3.90;;
60169;SDS011;46042;49.444;6.862;2023-04-25T00:27:55;5.85;;;3.50;;
60169;SDS011;46042;49.444;6.862;2023-04-25T00:30:22;7.15;;;4.30;;
60169;SDS011;46042;49.444;6.862;2023-04-25T00:32:49;9.38;;;4.95;;
60169;SDS011;46042;49.444;6.862;2023-04-25T00:35:16;7.38;;;4.43;;
60169;SDS011;46042;49.444;6.862;2023-04-25T00:37:44;4.72;;;3.55;;
60169;SDS011;46042;49.444;6.862;2023-04-25T00:40:11;7.18;;;4.15;;
60169;SDS011;46042;49.444;6.862;2023-04-25T00:42:38;5.50;;;4.13;;
60169;SDS011;46042;49.444;6.862;2023-04-25T00:45:06;9.73;;;4.28;;
60169;SDS011;46042;49.444;6.862;2023-04-25T00:47:35;6.75;;;4.13;;
60169;SDS011;46042;49.444;6.862;2023-04-25T00:50:03;4.93;;;3.70;;
60169;SDS011;46042;49.444;6.862;2023-04-25T00:52:31;6.13;;;4.18;;
60169;SDS011;46042;49.444;6.862;2023-04-25T00:54:57;5.90;;;3.85;;
60169;SDS011;46042;49.444;6.862;2023-04-25T00:57:25;5.75;;;3.92;;
60169;SDS011;46042;49.444;6.862;2023-04-25T00:59:51;5.97;;;3.95;;
60169;SDS011;46042;49.444;6.862;2023-04-25T01:02:19;6.63;;;4.38;;
60169;SDS011;46042;49.444;6.862;2023-04-25T01:04:50;10.10;;;4.07;;
60169;SDS011;46042;49.444;6.862;2023-04-25T01:07:17;8.93;;;5.18;;
60169;SDS011;46042;49.444;6.862;2023-04-25T01:09:43;6.88;;;4.03;;
60169;SDS011;46042;49.444;6.862;2023-04-25T01:12:10;7.07;;;4.05;;
60169;SDS011;46042;49.444;6.862;2023-04-25T01:14:37;6.20;;;4.28;;
60169;SDS011;46042;49.444;6.862;2023-04-25T01:17:04;7.45;;;4.15;;
60169;SDS011;46042;49.444;6.862;2023-04-25T01:19:31;6.30;;;4.50;;
60169;SDS011;46042;49.444;6.862;2023-04-25T01:21:58;6.38;;;4.15;;
60169;SDS011;46042;49.444;6.862;2023-04-25T01:24:25;10.55;;;4.65;;
60169;SDS011;46042;49.444;6.862;2023-04-25T01:26:52;7.13;;;4.28;;
60169;SDS011;46042;49.444;6.862;2023-04-25T01:29:22;7.83;;;4.90;;
60169;SDS011;46042;49.444;6.862;2023-04-25T01:31:49;8.00;;;5.10;;
60169;SDS011;46042;49.444;6.862;2023-04-25T01:34:18;6.40;;;4.40;;
60169;SDS011;46042;49.444;6.862;2023-04-25T01:36:47;6.55;;;4.22;;
60169;SDS011;46042;49.444;6.862;2023-04-25T01:39:16;7.30;;;4.72;;
60169;SDS011;46042;49.444;6.862;2023-04-25T01:41:44;7.32;;;4.80;;
60169;SDS011;46042;49.444;6.862;2023-04-25T01:44:14;13.45;;;5.00;;
60169;SDS011;46042;49.444;6.862;2023-04-25T01:46:43;12.07;;;5.50;;
60169;SDS011;46042;49.444;6.862;2023-04-25T01:49:11;7.20;;;4.90;;
60169;SDS011;46042;49.444;6.862;2023-04-25T01:51:38;9.00;;;5.47;;
60169;SDS011;46042;49.444;6.862;2023-04-25T01:54:05;12.18;;;6.68;;
60169;SDS011;46042;49.444;6.862;2023-04-25T01:56:32;9.23;;;5.70;;
60169;SDS011;46042;49.444;6.862;2023-04-25T01:59:03;7.57;;;5.47;;
60169;SDS011;46042;49.444;6.862;2023-04-25T02:01:32;10.82;;;4.47;;
60169;SDS011;46042;49.444;6.862;2023-04-25T02:04:01;9.57;;;4.93;;
60169;SDS011;46042;49.444;6.862;2023-04-25T02:06:28;11.75;;;5.25;;
60169;SDS011;46042;49.444;6.862;2023-04-25T02:08:54;9.10;;;5.22;;
60169;SDS011;46042;49.444;6.862;2023-04-25T02:11:21;7.03;;;5.07;;
60169;SDS011;46042;49.444;6.862;2023-04-25T02:13:48;7.47;;;4.90;;
60169;SDS011;46042;49.444;6.862;2023-04-25T02:16:15;11.43;;;5.40;;
60169;SDS011;46042;49.444;6.862;2023-04-25T02:18:42;9.20;;;4.65;;
60169;SDS011;46042;49.444;6.862;2023-04-25T02:21:09;6.93;;;4.35;;
60169;SDS011;46042;49.444;6.862;2023-04-25T02:23:35;6.25;;;4.70;;
60169;SDS011;46042;49.444;6.862;2023-04-25T02:26:02;7.22;;;4.70;;
60169;SDS011;46042;49.444;6.862;2023-04-25T02:28:29;7.57;;;4.88;;
60169;SDS011;46042;49.444;6.862;2023-04-25T02:30:58;7.70;;;5.00;;
60169;SDS011;46042;49.444;6.862;2023-04-25T02:33:26;7.13;;;4.60;;
60169;SDS011;46042;49.444;6.862;2023-04-25T02:35:53;7.63;;;4.32;;
60169;SDS011;46042;49.444;6.862;2023-04-25T02:38:19;9.38;;;4.97;;
60169;SDS011;46042;49.444;6.862;2023-04-25T02:40:46;8.15;;;4.50;;
60169;SDS011;46042;49.444;6.862;2023-04-25T02:43:14;6.72;;;4.10;;
60169;SDS011;46042;49.444;6.862;2023-04-25T02:45:42;6.50;;;4.10;;
60169;SDS011;46042;49.444;6.862;2023-04-25T02:48:08;6.20;;;3.92;;
60169;SDS011;46042;49.444;6.862;2023-04-25T02:50:35;6.03;;;4.00;;
60169;SDS011;46042;49.444;6.862;2023-04-25T02:53:02;7.05;;;4.70;;
60169;SDS011;46042;49.444;6.862;2023-04-25T02:55:28;8.32;;;4.65;;
60169;SDS011;46042;49.444;6.862;2023-04-25T02:57:55;6.28;;;4.72;;
60169;SDS011;46042;49.444;6.862;2023-04-25T03:00:24;8.40;;;4.80;;
60169;SDS011;46042;49.444;6.862;2023-04-25T03:02:51;6.93;;;4.80;;
60169;SDS011;46042;49.444;6.862;2023-04-25T03:05:18;9.38;;;5.25;;
60169;SDS011;46042;49.444;6.862;2023-04-25T03:07:45;8.77;;;4.28;;
60169;SDS011;46042;49.444;6.862;2023-04-25T03:10:12;11.15;;;5.50;;
60169;SDS011;46042;49.444;6.862;2023-04-25T03:12:39;11.90;;;4.50;;
60169;SDS011;46042;49.444;6.862;2023-04-25T03:15:05;8.55;;;4.82;;
60169;SDS011;46042;49.444;6.862;2023-04-25T03:17:32;5.97;;;4.57;;
60169;SDS011;46042;49.444;6.862;2023-04-25T03:19:59;9.13;;;4.85;;
60169;SDS011;46042;49.444;6.862;2023-04-25T03:22:26;7.32;;;4.63;;
60169;SDS011;46042;49.444;6.862;2023-04-25T03:24:54;7.32;;;4.47;;
60169;SDS011;46042;49.444;6.862;2023-04-25T03:27:21;7.60;;;5.10;;
60169;SDS011;46042;49.444;6.862;2023-04-25T03:29:48;8.82;;;5.03;;
60169;SDS011;46042;49.444;6.862;2023-04-25T03:32:14;6.07;;;4.32;;
60169;SDS011;46042;49.444;6.862;2023-04-25T03:34:41;7.35;;;4.38;;
60169;SDS011;46042;49.444;6.862;2023-04-25T03:37:07;7.80;;;4.63;;
60169;SDS011;46042;49.444;6.862;2023-04-25T03:39:34;8.90;;;5.32;;
60169;SDS011;46042;49.444;6.862;2023-04-25T03:42:01;7.60;;;4.93;;
60169;SDS011;46042;49.444;6.862;2023-04-25T03:44:29;7.43;;;4.32;;
60169;SDS011;46042;49.444;6.862;2023-04-25T03:46:56;8.20;;;4.88;;
60169;SDS011;46042;49.444;6.862;2023-04-25T03:49:22;7.75;;;5.00;;
60169;SDS011;46042;49.444;6.862;2023-04-25T03:51:49;6.78;;;4.80;;
60169;SDS011;46042;49.444;6.862;2023-04-25T03:54:16;8.55;;;6.07;;
60169;SDS011;46042;49.444;6.862;2023-04-25T03:56:42;9.05;;;5.60;;
60169;SDS011;46042;49.444;6.862;2023-04-25T03:59:09;7.05;;;4.80;;
60169;SDS011;46042;49.444;6.862;2023-04-25T04:01:36;6.80;;;4.68;;
60169;SDS011;46042;49.444;6.862;2023-04-25T04:04:03;7.40;;;4.60;;
60169;SDS011;46042;49.444;6.862;2023-04-25T04:06:30;8.10;;;5.55;;
60169;SDS011;46042;49.444;6.862;2023-04-25T04:08:59;7.35;;;4.82;;
60169;SDS011;46042;49.444;6.862;2023-04-25T04:11:25;7.78;;;4.72;;
60169;SDS011;46042;49.444;6.862;2023-04-25T04:13:53;7.40;;;4.70;;
60169;SDS011;46042;49.444;6.862;2023-04-25T04:16:19;7.32;;;4.93;;
60169;SDS011;46042;49.444;6.862;2023-04-25T04:18:46;7.22;;;4.68;;
60169;SDS011;46042;49.444;6.862;2023-04-25T04:21:13;7.32;;;5.13;;
60169;SDS011;46042;49.444;6.862;2023-04-25T04:23:39;9.15;;;4.60;;
60169;SDS011;46042;49.444;6.862;2023-04-25T04:26:06;8.00;;;5.00;;
60169;SDS011;46042;49.444;6.862;2023-04-25T04:28:35;7.95;;;5.45;;
60169;SDS011;46042;49.444;6.862;2023-04-25T04:31:02;7.10;;;5.07;;
60169;SDS011;46042;49.444;6.862;2023-04-25T04:33:30;8.40;;;5.35;;
60169;SDS011;46042;49.444;6.862;2023-04-25T04:35:57;8.75;;;5.47;;
60169;SDS011;46042;49.444;6.862;2023-04-25T04:38:24;8.40;;;5.15;;
60169;SDS011;46042;49.444;6.862;2023-04-25T04:40:52;6.55;;;4.68;;
60169;SDS011;46042;49.444;6.862;2023-04-25T04:43:20;9.55;;;5.55;;
60169;SDS011;46042;49.444;6.862;2023-04-25T04:45:46;8.25;;;4.72;;
60169;SDS011;46042;49.444;6.862;2023-04-25T04:48:13;7.55;;;4.97;;
60169;SDS011;46042;49.444;6.862;2023-04-25T04:50:40;8.30;;;4.70;;
60169;SDS011;46042;49.444;6.862;2023-04-25T04:53:11;5.35;;;4.35;;
60169;SDS011;46042;49.444;6.862;2023-04-25T04:55:38;6.97;;;4.47;;
60169;SDS011;46042;49.444;6.862;2023-04-25T04:58:05;7.35;;;4.90;;
60169;SDS011;46042;49.444;6.862;2023-04-25T05:00:31;7.78;;;4.97;;
60169;SDS011;46042;49.444;6.862;2023-04-25T05:02:59;9.02;;;5.95;;
60169;SDS011;46042;49.444;6.862;2023-04-25T05:05:26;10.13;;;5.50;;
60169;SDS011;46042;49.444;6.862;2023-04-25T05:07:53;8.93;;;5.65;;
60169;SDS011;46042;49.444;6.862;2023-04-25T05:10:21;11.00;;;6.18;;
60169;SDS011;46042;49.444;6.862;2023-04-25T05:12:48;10.63;;;7.07;;
60169;SDS011;46042;49.444;6.862;2023-04-25T05:15:15;7.85;;;5.75;;
60169;SDS011;46042;49.444;6.862;2023-04-25T05:17:42;8.27;;;5.88;;
60169;SDS011;46042;49.444;6.862;2023-04-25T05:20:09;9.93;;;5.65;;
60169;SDS011;46042;49.444;6.862;2023-04-25T05:22:36;9.27;;;5.45;;
60169;SDS011;46042;49.444;6.862;2023-04-25T05:25:03;9.68;;;5.30;;
60169;SDS011;46042;49.444;6.862;2023-04-25T05:27:30;7.50;;;5.30;;
60169;SDS011;46042;49.444;6.862;2023-04-25T05:29:57;6.72;;;4.93;;
60169;SDS011;46042;49.444;6.862;2023-04-25T05:32:24;7.53;;;5.25;;
60169;SDS011;46042;49.444;6.862;2023-04-25T05:34:51;9.77;;;4.85;;
60169;SDS011;46042;49.444;6.862;2023-04-25T05:37:18;10.30;;;5.35;;
60169;SDS011;46042;49.444;6.862;2023-04-25T05:39:45;9.30;;;5.55;;
60169;SDS011;46042;49.444;6.862;2023-04-25T05:42:11;7.55;;;5.72;;
60169;SDS011;46042;49.444;6.862;2023-04-25T05:44:38;9.63;;;5.32;;
60169;SDS011;46042;49.444;6.862;2023-04-25T05:47:04;8.60;;;5.30;;
60169;SDS011;46042;49.444;6.862;2023-04-25T05:49:31;7.07;;;5.07;;
60169;SDS011;46042;49.444;6.862;2023-04-25T05:51:58;9.90;;;5.95;;
60169;SDS011;46042;49.444;6.862;2023-04-25T05:54:24;8.95;;;5.53;;
60169;SDS011;46042;49.444;6.862;2023-04-25T05:56:51;11.48;;;5.45;;
60169;SDS011;46042;49.444;6.862;2023-04-25T05:59:18;6.90;;;5.10;;
60169;SDS011;46042;49.444;6.862;2023-04-25T06:01:45;8.00;;;4.93;;
60169;SDS011;46042;49.444;6.862;2023-04-25T06:04:13;6.97;;;4.63;;
60169;SDS011;46042;49.444;6.862;2023-04-25T06:06:41;8.82;;;4.60;;
60169;SDS011;46042;49.444;6.862;2023-04-25T06:09:07;6.38;;;4.47;;
60169;SDS011;46042;49.444;6.862;2023-04-25T06:11:34;6.93;;;4.82;;
60169;SDS011;46042;49.444;6.862;2023-04-25T06:14:01;6.88;;;4.05;;
60169;SDS011;46042;49.444;6.862;2023-04-25T06:16:28;8.45;;;4.47;;
60169;SDS011;46042;49.444;6.862;2023-04-25T06:18:55;8.18;;;3.88;;
60169;SDS011;46042;49.444;6.862;2023-04-25T06:21:21;5.90;;;4.40;;
60169;SDS011;46042;49.444;6.862;2023-04-25T06:23:48;6.88;;;4.97;;
60169;SDS011;46042;49.444;6.862;2023-04-25T06:26:16;5.75;;;4.10;;
60169;SDS011;46042;49.444;6.862;2023-04-25T06:28:43;7.10;;;4.53;;
60169;SDS011;46042;49.444;6.862;2023-04-25T06:31:09;7.65;;;4.47;;
60169;SDS011;46042;49.444;6.862;2023-04-25T06:33:36;7.88;;;4.43;;
60169;SDS011;46042;49.444;6.862;2023-04-25T06:36:03;8.10;;;4.45;;
60169;SDS011;46042;49.444;6.862;2023-04-25T06:38:30;5.90;;;4.30;;
60169;SDS011;46042;49.444;6.862;2023-04-25T06:40:57;6.45;;;4.40;;
60169;SDS011;46042;49.444;6.862;2023-04-25T06:43:23;8.00;;;4.60;;
60169;SDS011;46042;49.444;6.862;2023-04-25T06:45:51;8.45;;;4.53;;
60169;SDS011;46042;49.444;6.862;2023-04-25T06:48:17;6.18;;;4.28;;
60169;SDS011;46042;49.444;6.862;2023-04-25T06:50:44;5.45;;;4.07;;
60169;SDS011;46042;49.444;6.862;2023-04-25T06:53:10;6.32;;;4.18;;
60169;SDS011;46042;49.444;6.862;2023-04-25T06:55:37;6.72;;;4.35;;
60169;SDS011;46042;49.444;6.862;2023-04-25T06:58:04;6.75;;;4.65;;
60169;SDS011;46042;49.444;6.862;2023-04-25T07:00:31;8.52;;;4.82;;
60169;SDS011;46042;49.444;6.862;2023-04-25T07:02:59;6.53;;;4.30;;
60169;SDS011;46042;49.444;6.862;2023-04-25T07:05:27;5.47;;;3.97;;
60169;SDS011;46042;49.444;6.862;2023-04-25T07:07:53;6.60;;;3.72;;
60169;SDS011;46042;49.444;6.862;2023-04-25T07:10:22;7.05;;;4.93;;
60169;SDS011;46042;49.444;6.862;2023-04-25T07:12:49;6.80;;;4.20;;
60169;SDS011;46042;49.444;6.862;2023-04-25T07:15:17;6.45;;;3.95;;
60169;SDS011;46042;49.444;6.862;2023-04-25T07:17:44;9.52;;;4.35;;
60169;SDS011;46042;49.444;6.862;2023-04-25T07:20:10;6.25;;;4.15;;
60169;SDS011;46042;49.444;6.862;2023-04-25T07:22:37;5.97;;;4.25;;
60169;SDS011;46042;49.444;6.862;2023-04-25T07:25:04;5.43;;;4.10;;
60169;SDS011;46042;49.444;6.862;2023-04-25T07:27:32;7.18;;;4.70;;
60169;SDS011;46042;49.444;6.862;2023-04-25T07:29:59;11.50;;;5.45;;
60169;SDS011;46042;49.444;6.862;2023-04-25T07:32:25;6.38;;;4.78;;
60169;SDS011;46042;49.444;6.862;2023-04-25T07:34:53;7.43;;;5.00;;
60169;SDS011;46042;49.444;6.862;2023-04-25T07:37:19;7.32;;;5.07;;
60169;SDS011;46042;49.444;6.862;2023-04-25T07:39:46;6.00;;;3.88;;
60169;SDS011;46042;49.444;6.862;2023-04-25T07:42:13;6.30;;;4.40;;
60169;SDS011;46042;49.444;6.862;2023-04-25T07:44:39;5.63;;;3.53;;
60169;SDS011;46042;49.444;6.862;2023-04-25T07:47:07;5.65;;;4.10;;
60169;SDS011;46042;49.444;6.862;2023-04-25T07:49:37;8.18;;;4.30;;
60169;SDS011;46042;49.444;6.862;2023-04-25T07:52:04;5.97;;;4.32;;
60169;SDS011;46042;49.444;6.862;2023-04-25T07:54:34;5.68;;;4.40;;
60169;SDS011;46042;49.444;6.862;2023-04-25T07:57:01;7.97;;;4.97;;
60169;SDS011;46042;49.444;6.862;2023-04-25T07:59:32;7.00;;;5.18;;
60169;SDS011;46042;49.444;6.862;2023-04-25T08:01:59;9.90;;;4.82;;
60169;SDS011;46042;49.444;6.862;2023-04-25T08:04:27;6.85;;;4.93;;
60169;SDS011;46042;49.444;6.862;2023-04-25T08:06:54;5.72;;;4.43;;
60169;SDS011;46042;49.444;6.862;2023-04-25T08:09:24;12.93;;;5.03;;
60169;SDS011;46042;49.444;6.862;2023-04-25T08:11:51;7.18;;;4.55;;
60169;SDS011;46042;49.444;6.862;2023-04-25T13:02:32;8.02;;;2.28;;
60169;SDS011;46042;49.444;6.862;2023-04-25T13:05:00;2.35;;;1.92;;
60169;SDS011;46042;49.444;6.862;2023-04-25T13:07:27;5.30;;;2.35;;
60169;SDS011;46042;49.444;6.862;2023-04-25T13:09:53;6.05;;;2.45;;
60169;SDS011;46042;49.444;6.862;2023-04-25T13:12:20;5.25;;;3.03;;
60169;SDS011;46042;49.444;6.862;2023-04-25T13:14:47;5.35;;;2.60;;
60169;SDS011;46042;49.444;6.862;2023-04-25T13:17:14;8.35;;;2.88;;
60169;SDS011;46042;49.444;6.862;2023-04-25T13:19:42;6.10;;;2.95;;
60169;SDS011;46042;49.444;6.862;2023-04-25T13:22:10;6.75;;;3.00;;
60169;SDS011;46042;49.444;6.862;2023-04-25T13:25:16;5.53;;;2.33;;
60169;SDS011;46042;49.444;6.862;2023-04-25T13:28:17;5.90;;;2.70;;
60169;SDS011;46042;49.444;6.862;2023-04-25T13:30:52;6.10;;;2.58;;
60169;SDS011;46042;49.444;6.862;2023-04-25T13:33:22;4.35;;;2.50;;
60169;SDS011;46042;49.444;6.862;2023-04-25T13:35:49;6.00;;;2.35;;
60169;SDS011;46042;49.444;6.862;2023-04-25T13:38:26;5.20;;;2.15;;
60169;SDS011;46042;49.444;6.862;2023-04-25T13:40:53;6.25;;;3.13;;
60169;SDS011;46042;49.444;6.862;2023-04-25T13:43:20;4.90;;;2.10;;
60169;SDS011;46042;49.444;6.862;2023-04-25T13:45:50;5.30;;;2.43;;
60169;SDS011;46042;49.444;6.862;2023-04-25T13:48:18;9.30;;;2.40;;
60169;SDS011;46042;49.444;6.862;2023-04-25T13:50:46;6.97;;;2.47;;
60169;SDS011;46042;49.444;6.862;2023-04-25T13:53:13;9.32;;;2.42;;
60169;SDS011;46042;49.444;6.862;2023-04-25T13:55:41;4.35;;;2.45;;
60169;SDS011;46042;49.444;6.862;2023-04-25T13:58:08;4.10;;;2.25;;
60169;SDS011;46042;49.444;6.862;2023-04-25T14:00:36;3.92;;;2.10;;
60169;SDS011;46042;49.444;6.862;2023-04-25T14:03:06;5.22;;;2.00;;
60169;SDS011;46042;49.444;6.862;2023-04-25T14:05:35;3.75;;;2.17;;
60169;SDS011;46042;49.444;6.862;2023-04-25T14:08:08;5.55;;;2.30;;
60169;SDS011;46042;49.444;6.862;2023-04-25T14:13:04;4.10;;;2.13;;
60169;SDS011;46042;49.444;6.862;2023-04-25T14:15:33;4.35;;;2.33;;
60169;SDS011;46042;49.444;6.862;2023-04-25T14:18:02;6.72;;;2.08;;
60169;SDS011;46042;49.444;6.862;2023-04-25T14:20:29;4.72;;;2.03;;
60169;SDS011;46042;49.444;6.862;2023-04-25T14:22:56;3.92;;;2.13;;
60169;SDS011;46042;49.444;6.862;2023-04-25T14:25:24;4.57;;;2.08;;
60169;SDS011;46042;49.444;6.862;2023-04-25T14:27:51;6.72;;;2.20;;
60169;SDS011;46042;49.444;6.862;2023-04-25T14:30:22;3.63;;;2.03;;
60169;SDS011;46042;49.444;6.862;2023-04-25T14:32:49;4.85;;;2.42;;
60169;SDS011;46042;49.444;6.862;2023-04-25T14:35:16;4.00;;;2.05;;
60169;SDS011;46042;49.444;6.862;2023-04-25T14:37:43;6.15;;;1.80;;
60169;SDS011;46042;49.444;6.862;2023-04-25T14:40:10;5.65;;;2.20;;
60169;SDS011;46042;49.444;6.862;2023-04-25T14:42:39;6.72;;;2.17;;
60169;SDS011;46042;49.444;6.862;2023-04-25T14:45:06;3.83;;;2.10;;
60169;SDS011;46042;49.444;6.862;2023-04-25T14:47:36;7.30;;;3.03;;
60169;SDS011;46042;49.444;6.862;2023-04-25T14:50:04;3.67;;;2.42;;
60169;SDS011;46042;49.444;6.862;2023-04-25T14:52:32;4.32;;;2.53;;
60169;SDS011;46042;49.444;6.862;2023-04-25T14:54:59;6.22;;;2.33;;
60169;SDS011;46042;49.444;6.862;2023-04-25T14:57:32;4.30;;;1.83;;
60169;SDS011;46042;49.444;6.862;2023-04-25T15:00:00;5.63;;;2.10;;
60169;SDS011;46042;49.444;6.862;2023-04-25T15:02:27;10.88;;;2.17;;
60169;SDS011;46042;49.444;6.862;2023-04-25T15:04:54;8.82;;;2.38;;
60169;SDS011;46042;49.444;6.862;2023-04-25T15:07:23;5.57;;;2.15;;
60169;SDS011;46042;49.444;6.862;2023-04-25T15:09:50;4.63;;;2.08;;
60169;SDS011;46042;49.444;6.862;2023-04-25T15:12:21;5.95;;;1.95;;
60169;SDS011;46042;49.444;6.862;2023-04-25T15:14:47;9.93;;;2.50;;
60169;SDS011;46042;49.444;6.862;2023-04-25T15:17:14;5.15;;;2.20;;
60169;SDS011;46042;49.444;6.862;2023-04-25T15:19:41;6.30;;;2.20;;
60169;SDS011;46042;49.444;6.862;2023-04-25T15:22:08;3.05;;;2.10;;
60169;SDS011;46042;49.444;6.862;2023-04-25T15:24:35;5.97;;;2.40;;
60169;SDS011;46042;49.444;6.862;2023-04-25T15:27:02;4.30;;;1.90;;
60169;SDS011;46042;49.444;6.862;2023-04-25T15:29:32;5.15;;;2.08;;
60169;SDS011;46042;49.444;6.862;2023-04-25T15:31:59;5.20;;;2.30;;
60169;SDS011;46042;49.444;6.862;2023-04-25T15:34:26;5.20;;;2.83;;
60169;SDS011;46042;49.444;6.862;2023-04-25T15:36:53;4.25;;;2.30;;
60169;SDS011;46042;49.444;6.862;2023-04-25T15:39:21;4.57;;;2.05;;
60169;SDS011;46042;49.444;6.862;2023-04-25T15:41:48;5.22;;;2.40;;
60169;SDS011;46042;49.444;6.862;2023-04-25T15:44:14;4.07;;;2.00;;
60169;SDS011;46042;49.444;6.862;2023-04-25T15:46:41;2.80;;;1.98;;
60169;SDS011;46042;49.444;6.862;2023-04-25T15:49:09;4.80;;;2.47;;
60169;SDS011;46042;49.444;6.862;2023-04-25T15:51:36;6.75;;;2.10;;
60169;SDS011;46042;49.444;6.862;2023-04-25T15:54:02;3.72;;;1.80;;
60169;SDS011;46042;49.444;6.862;2023-04-25T15:56:30;3.38;;;1.73;;
60169;SDS011;46042;49.444;6.862;2023-04-25T15:58:57;5.10;;;2.20;;
60169;SDS011;46042;49.444;6.862;2023-04-25T16:01:25;9.27;;;2.65;;
60169;SDS011;46042;49.444;6.862;2023-04-25T16:03:56;4.40;;;2.10;;
60169;SDS011;46042;49.444;6.862;2023-04-25T16:06:24;4.93;;;2.00;;
60169;SDS011;46042;49.444;6.862;2023-04-25T16:08:52;5.25;;;2.30;;
60169;SDS011;46042;49.444;6.862;2023-04-25T16:11:20;3.50;;;1.88;;
60169;SDS011;46042;49.444;6.862;2023-04-25T16:13:46;5.10;;;1.70;;
60169;SDS011;46042;49.444;6.862;2023-04-25T16:16:15;4.20;;;1.80;;
60169;SDS011;46042;49.444;6.862;2023-04-25T16:18:42;3.38;;;1.95;;
60169;SDS011;46042;49.444;6.862;2023-04-25T16:21:09;6.93;;;2.15;;
60169;SDS011;46042;49.444;6.862;2023-04-25T16:23:42;4.68;;;1.83;;
60169;SDS011;46042;49.444;6.862;2023-04-25T16:26:09;5.82;;;2.00;;
60169;SDS011;46042;49.444;6.862;2023-04-25T16:28:36;4.10;;;2.15;;
60169;SDS011;46042;49.444;6.862;2023-04-25T16:31:02;4.60;;;1.88;;
60169;SDS011;46042;49.444;6.862;2023-04-25T16:33:29;4.28;;;1.95;;
60169;SDS011;46042;49.444;6.862;2023-04-25T16:35:56;5.10;;;2.30;;
60169;SDS011;46042;49.444;6.862;2023-04-25T16:38:26;9.10;;;2.10;;
60169;SDS011;46042;49.444;6.862;2023-04-25T16:40:53;4.35;;;2.10;;
60169;SDS011;46042;49.444;6.862;2023-04-25T16:43:19;5.57;;;2.15;;
60169;SDS011;46042;49.444;6.862;2023-04-25T16:45:47;2.58;;;1.80;;
60169;SDS011;46042;49.444;6.862;2023-04-25T16:48:13;5.18;;;1.95;;
60169;SDS011;46042;49.444;6.862;2023-04-25T16:50:41;2.40;;;1.55;;
60169;SDS011;46042;49.444;6.862;2023-04-25T16:53:08;5.32;;;1.80;;
60169;SDS011;46042;49.444;6.862;2023-04-25T16:55:35;5.38;;;2.25;;
60169;SDS011;46042;49.444;6.862;2023-04-25T16:58:03;5.70;;;2.00;;
60169;SDS011;46042;49.444;6.862;2023-04-25T17:00:30;5.80;;;2.00;;
60169;SDS011;46042;49.444;6.862;2023-04-25T17:02:58;3.70;;;2.08;;
60169;SDS011;46042;49.444;6.862;2023-04-25T17:05:26;7.95;;;2.10;;
60169;SDS011;46042;49.444;6.862;2023-04-25T17:07:52;4.68;;;2.22;;
60169;SDS011;46042;49.444;6.862;2023-04-25T17:10:19;3.50;;;2.15;;
60169;SDS011;46042;49.444;6.862;2023-04-25T17:12:46;3.72;;;2.13;;
60169;SDS011;46042;49.444;6.862;2023-04-25T17:15:13;3.90;;;1.77;;
60169;SDS011;46042;49.444;6.862;2023-04-25T17:17:39;4.50;;;1.92;;
60169;SDS011;46042;49.444;6.862;2023-04-25T17:20:07;4.65;;;2.00;;
60169;SDS011;46042;49.444;6.862;2023-04-25T17:22:38;6.63;;;2.15;;
60169;SDS011;46042;49.444;6.862;2023-04-25T17:25:06;8.40;;;2.53;;
60169;SDS011;46042;49.444;6.862;2023-04-25T17:27:35;5.45;;;2.20;;
60169;SDS011;46042;49.444;6.862;2023-04-25T17:30:03;4.82;;;1.60;;
60169;SDS011;46042;49.444;6.862;2023-04-25T17:32:34;4.33;;;2.20;;
60169;SDS011;46042;49.444;6.862;2023-04-25T17:35:01;7.10;;;2.58;;
60169;SDS011;46042;49.444;6.862;2023-04-25T17:37:27;4.30;;;2.08;;
60169;SDS011;46042;49.444;6.862;2023-04-25T17:39:54;2.95;;;1.85;;
60169;SDS011;46042;49.444;6.862;2023-04-25T17:42:22;8.77;;;2.42;;
60169;SDS011;46042;49.444;6.862;2023-04-25T17:44:49;4.68;;;1.75;;
60169;SDS011;46042;49.444;6.862;2023-04-25T17:47:15;4.72;;;2.10;;
60169;SDS011;46042;49.444;6.862;2023-04-25T17:49:42;4.13;;;1.90;;
60169;SDS011;46042;49.444;6.862;2023-04-25T17:52:09;5.00;;;1.88;;
60169;SDS011;46042;49.444;6.862;2023-04-25T17:54:36;4.70;;;2.40;;
60169;SDS011;46042;49.444;6.862;2023-04-25T17:57:03;4.22;;;2.45;;
60169;SDS011;46042;49.444;6.862;2023-04-25T17:59:30;6.68;;;2.45;;
60169;SDS011;46042;49.444;6.862;2023-04-25T18:01:56;5.95;;;2.72;;
60169;SDS011;46042;49.444;6.862;2023-04-25T18:04:25;4.70;;;1.92;;
60169;SDS011;46042;49.444;6.862;2023-04-25T18:06:52;6.05;;;2.17;;
60169;SDS011;46042;49.444;6.862;2023-04-25T18:09:21;6.65;;;2.47;;
60169;SDS011;46042;49.444;6.862;2023-04-25T18:11:50;7.63;;;2.20;;
60169;SDS011;46042;49.444;6.862;2023-04-25T18:14:20;4.47;;;2.30;;
60169;SDS011;46042;49.444;6.862;2023-04-25T18:16:49;6.30;;;2.40;;
60169;SDS011;46042;49.444;6.862;2023-04-25T18:19:19;8.13;;;2.13;;
60169;SDS011;46042;49.444;6.862;2023-04-25T18:21:51;5.63;;;3.30;;
60169;SDS011;46042;49.444;6.862;2023-04-25T18:24:21;16.33;;;2.30;;
60169;SDS011;46042;49.444;6.862;2023-04-25T18:26:51;3.20;;;2.13;;
60169;SDS011;46042;49.444;6.862;2023-04-25T18:29:20;6.28;;;2.25;;
60169;SDS011;46042;49.444;6.862;2023-04-25T18:31:58;5.63;;;2.42;;
60169;SDS011;46042;49.444;6.862;2023-04-25T18:34:27;8.68;;;2.70;;
60169;SDS011;46042;49.444;6.862;2023-04-25T18:36:55;7.45;;;2.38;;
60169;SDS011;46042;49.444;6.862;2023-04-25T18:39:22;4.03;;;1.88;;
60169;SDS011;46042;49.444;6.862;2023-04-25T18:41:52;6.25;;;2.67;;
60169;SDS011;46042;49.444;6.862;2023-04-25T18:44:30;5.68;;;3.08;;
60169;SDS011;46042;49.444;6.862;2023-04-25T18:46:59;6.28;;;2.78;;
60169;SDS011;46042;49.444;6.862;2023-04-25T18:49:26;6.90;;;2.22;;
60169;SDS011;46042;49.444;6.862;2023-04-25T18:51:53;5.18;;;2.45;;
60169;SDS011;46042;49.444;6.862;2023-04-25T18:54:21;5.07;;;2.33;;
60169;SDS011;46042;49.444;6.862;2023-04-25T18:56:48;5.55;;;2.60;;
60169;SDS011;46042;49.444;6.862;2023-04-25T18:59:14;5.35;;;2.70;;
60169;SDS011;46042;49.444;6.862;2023-04-25T19:01:44;3.85;;;2.20;;
60169;SDS011;46042;49.444;6.862;2023-04-25T19:04:11;6.13;;;2.45;;
60169;SDS011;46042;49.444;6.862;2023-04-25T19:06:38;5.25;;;2.25;;
60169;SDS011;46042;49.444;6.862;2023-04-25T19:09:07;6.50;;;2.42;;
60169;SDS011;46042;49.444;6.862;2023-04-25T19:11:37;6.82;;;2.38;;
60169;SDS011;46042;49.444;6.862;2023-04-25T19:14:04;7.38;;;2.50;;
60169;SDS011;46042;49.444;6.862;2023-04-25T19:16:30;5.53;;;2.40;;
60169;SDS011;46042;49.444;6.862;2023-04-25T19:19:04;7.22;;;3.03;;
60169;SDS011;46042;49.444;6.862;2023-04-25T19:21:34;6.93;;;3.30;;
60169;SDS011;46042;49.444;6.862;2023-04-25T19:24:01;7.97;;;3.75;;
60169;SDS011;46042;49.444;6.862;2023-04-25T19:26:31;6.70;;;2.53;;
60169;SDS011;46042;49.444;6.862;2023-04-25T19:29:16;10.98;;;3.28;;
60169;SDS011;46042;49.444;6.862;2023-04-25T19:31:43;6.57;;;2.50;;
60169;SDS011;46042;49.444;6.862;2023-04-25T19:34:11;7.88;;;2.80;;
60169;SDS011;46042;49.444;6.862;2023-04-25T19:36:39;6.03;;;2.70;;
60169;SDS011;46042;49.444;6.862;2023-04-25T19:39:10;10.13;;;3.25;;
60169;SDS011;46042;49.444;6.862;2023-04-25T19:41:37;9.05;;;3.03;;